Time;durP1;ratioP1;P1;durP2;ratioP2;P2;SDS_P1;SDS_P2;PMS_P1;PMS_P2;Temp;Humidity;BMP_temperature;BMP_pressure;BME280_temperature;BME280_humidity;BME280_pressure;Samples;Min_cycle;Max_cycle;Signal;HPM_P1;HPM_P2
2023/04/23 00:00:04;;;;;;;6.77;4.17;;;11.60;99.90;;;;;;5041609;28;20461;-60
2023/04/23 00:02:32;;;;;;;6.10;4.20;;;11.60;99.90;;;;;;5043417;28;20436;-59
2023/04/23 00:05:03;;;;;;;4.30;3.90;;;11.60;99.90;;;;;;5035829;28;20423;-60
2023/04/23 00:07:31;;;;;;;10.80;4.33;;;11.60;99.90;;;;;;5038439;28;20472;-59
2023/04/23 00:09:58;;;;;;;5.53;4.17;;;11.60;99.90;;;;;;5044069;28;20435;-59
2023/04/23 00:12:24;;;;;;;8.67;4.33;;;11.60;99.90;;;;;;5047200;28;20437;-59
2023/04/23 00:14:50;;;;;;;7.17;4.53;;;11.50;99.90;;;;;;5045262;28;20438;-60
2023/04/23 00:17:15;;;;;;;7.93;4.30;;;11.50;99.90;;;;;;5042641;28;20437;-58
2023/04/23 00:19:41;;;;;;;11.00;5.00;;;11.50;99.90;;;;;;5033554;28;20187;-59
2023/04/23 00:22:07;;;;;;;5.93;3.83;;;11.50;99.90;;;;;;5043985;28;20167;-59
2023/04/23 00:24:35;;;;;;;13.80;4.40;;;11.40;99.90;;;;;;5040754;28;20186;-60
2023/04/23 00:27:00;;;;;;;9.77;4.77;;;11.50;99.90;;;;;;5040997;28;20187;-59
2023/04/23 00:29:26;;;;;;;5.10;4.40;;;11.40;99.90;;;;;;5048308;28;20445;-59
2023/04/23 00:31:52;;;;;;;4.73;4.23;;;11.40;99.90;;;;;;5041558;28;20230;-59
2023/04/23 00:34:17;;;;;;;9.30;4.00;;;11.50;99.90;;;;;;5039369;28;20681;-60
2023/04/23 00:36:43;;;;;;;8.40;4.70;;;11.40;99.90;;;;;;5044873;28;20175;-59
2023/04/23 00:39:10;;;;;;;8.10;3.67;;;11.40;99.90;;;;;;5043959;28;20813;-59
2023/04/23 00:41:36;;;;;;;5.23;3.97;;;11.40;99.90;;;;;;5024295;28;20179;-59
2023/04/23 00:44:02;;;;;;;10.37;4.20;;;11.50;99.90;;;;;;5043416;28;20499;-60
2023/04/23 00:46:28;;;;;;;5.63;4.20;;;11.50;99.90;;;;;;5044226;28;20182;-59
2023/04/23 00:48:54;;;;;;;8.80;4.27;;;11.40;99.90;;;;;;5039825;28;20445;-59
2023/04/23 00:51:22;;;;;;;5.80;4.37;;;11.40;99.90;;;;;;5045402;28;21139;-59
2023/04/23 00:53:48;;;;;;;6.63;4.50;;;11.40;99.90;;;;;;5040951;28;20461;-60
2023/04/23 00:56:14;;;;;;;6.77;4.60;;;11.40;99.90;;;;;;5042645;28;20441;-59
2023/04/23 00:58:40;;;;;;;6.00;3.90;;;11.40;99.90;;;;;;5037798;28;20457;-59
2023/04/23 01:01:06;;;;;;;6.10;4.43;;;11.40;99.90;;;;;;5035084;28;20436;-59
2023/04/23 01:03:35;;;;;;;12.17;4.23;;;11.40;99.90;;;;;;5038695;28;21019;-59
2023/04/23 01:06:01;;;;;;;9.33;5.10;;;11.30;99.90;;;;;;5044590;28;20532;-59
2023/04/23 01:08:30;;;;;;;6.33;5.10;;;11.30;99.90;;;;;;5027789;28;20507;-59
2023/04/23 01:10:56;;;;;;;5.90;4.50;;;11.40;99.90;;;;;;5037725;28;20434;-60
2023/04/23 01:13:25;;;;;;;5.40;4.50;;;11.30;99.90;;;;;;5043804;28;20461;-59
2023/04/23 01:15:51;;;;;;;7.17;4.90;;;11.30;99.90;;;;;;5036469;28;20433;-59
2023/04/23 01:18:18;;;;;;;7.03;4.40;;;11.30;99.90;;;;;;5041460;28;20456;-60
2023/04/23 01:20:43;;;;;;;8.53;4.53;;;11.30;99.90;;;;;;5045820;28;20191;-59
2023/04/23 01:23:10;;;;;;;7.50;4.87;;;11.30;99.90;;;;;;5047531;28;20985;-59
2023/04/23 01:25:36;;;;;;;7.27;4.63;;;11.20;99.90;;;;;;5030863;28;20282;-60
2023/04/23 01:28:02;;;;;;;11.90;4.93;;;11.10;99.90;;;;;;5045711;28;20607;-59
2023/04/23 01:30:28;;;;;;;7.10;4.80;;;11.10;99.90;;;;;;5043517;28;20456;-60
2023/04/23 01:32:55;;;;;;;6.00;5.10;;;11.10;99.90;;;;;;5037432;28;20274;-60
2023/04/23 01:35:21;;;;;;;8.67;4.90;;;11.00;99.90;;;;;;5042958;28;20425;-60
2023/04/23 01:37:50;;;;;;;5.03;4.53;;;11.00;99.90;;;;;;5045682;28;20484;-60
2023/04/23 01:40:16;;;;;;;6.80;4.53;;;11.10;99.90;;;;;;5042938;28;20430;-60
2023/04/23 01:42:42;;;;;;;8.07;4.87;;;11.10;99.90;;;;;;5024782;28;20968;-59
2023/04/23 01:45:08;;;;;;;7.60;4.80;;;11.10;99.90;;;;;;5044931;28;20178;-59
2023/04/23 01:47:35;;;;;;;10.43;5.20;;;11.10;99.90;;;;;;5037934;28;20604;-59
2023/04/23 01:50:01;;;;;;;5.90;4.50;;;11.10;99.90;;;;;;5039634;28;20427;-59
2023/04/23 01:52:26;;;;;;;6.40;4.67;;;11.10;99.90;;;;;;5040318;28;20491;-59
2023/04/23 01:54:52;;;;;;;8.33;4.40;;;11.10;99.90;;;;;;5043387;28;20852;-59
2023/04/23 01:57:25;;;;;;;5.40;4.17;;;11.10;99.90;;;;;;5040362;28;20179;-59
2023/04/23 01:59:56;;;;;;;5.57;4.23;;;11.10;99.90;;;;;;5041321;28;20175;-59
2023/04/23 02:02:22;;;;;;;7.77;5.03;;;11.10;99.90;;;;;;5041577;28;20426;-59
2023/04/23 02:04:49;;;;;;;7.77;4.13;;;11.10;99.90;;;;;;5023686;28;20794;-59
2023/04/23 02:07:15;;;;;;;5.33;4.33;;;11.10;99.90;;;;;;5041511;28;20179;-60
2023/04/23 02:09:40;;;;;;;5.93;4.73;;;11.10;99.90;;;;;;5040897;28;20421;-59
2023/04/23 02:12:06;;;;;;;6.53;4.23;;;11.00;99.90;;;;;;5042244;28;20289;-60
2023/04/23 02:14:31;;;;;;;7.57;4.47;;;11.00;99.90;;;;;;5043602;28;20211;-60
2023/04/23 02:16:57;;;;;;;5.33;4.83;;;11.00;99.90;;;;;;5023801;28;21935;-59
2023/04/23 02:19:23;;;;;;;6.40;4.70;;;11.00;99.90;;;;;;5042133;28;20194;-59
2023/04/23 02:21:48;;;;;;;7.90;4.60;;;11.00;99.90;;;;;;5044343;28;20648;-60
2023/04/23 02:24:14;;;;;;;5.37;4.70;;;11.00;99.90;;;;;;5039310;28;20210;-59
2023/04/23 02:26:39;;;;;;;7.20;4.50;;;10.90;99.90;;;;;;5033442;28;20539;-59
2023/04/23 02:29:05;;;;;;;10.20;4.40;;;10.90;99.90;;;;;;5043940;28;20233;-59
2023/04/23 02:31:31;;;;;;;6.20;4.83;;;10.90;99.90;;;;;;5035077;28;20608;-60
2023/04/23 02:33:56;;;;;;;7.33;4.53;;;10.90;99.90;;;;;;5048754;28;20191;-60
2023/04/23 02:36:22;;;;;;;9.17;4.70;;;10.90;99.90;;;;;;5048006;28;20175;-60
2023/04/23 02:38:49;;;;;;;9.00;5.47;;;10.80;99.90;;;;;;5042746;28;20197;-60
2023/04/23 02:41:15;;;;;;;6.30;4.30;;;10.80;99.90;;;;;;5043313;28;20225;-59
2023/04/23 02:43:41;;;;;;;10.83;4.43;;;10.80;99.90;;;;;;5046343;28;20854;-59
2023/04/23 02:46:07;;;;;;;8.10;4.57;;;10.80;99.90;;;;;;5043831;28;20245;-60
2023/04/23 02:48:38;;;;;;;5.40;4.60;;;10.80;99.90;;;;;;5045016;28;20203;-60
2023/04/23 02:51:05;;;;;;;6.60;4.90;;;10.80;99.90;;;;;;5045101;28;20249;-60
2023/04/23 02:53:31;;;;;;;10.90;4.90;;;10.80;99.90;;;;;;5043540;28;20460;-60
2023/04/23 02:55:56;;;;;;;6.87;4.77;;;10.70;99.90;;;;;;5039312;28;20422;-60
2023/04/23 02:58:22;;;;;;;8.90;4.87;;;10.70;99.90;;;;;;5044418;28;20211;-60
2023/04/23 03:00:48;;;;;;;7.27;5.10;;;10.70;99.90;;;;;;5047638;28;20238;-60
2023/04/23 03:03:14;;;;;;;6.17;5.40;;;10.70;99.90;;;;;;5047517;28;20807;-59
2023/04/23 03:05:39;;;;;;;4.90;4.40;;;10.60;99.90;;;;;;5033640;28;20723;-59
2023/04/23 03:08:05;;;;;;;10.13;5.10;;;10.70;99.90;;;;;;5047768;28;20206;-59
2023/04/23 03:10:30;;;;;;;7.20;5.67;;;10.70;99.90;;;;;;5024308;28;20176;-60
2023/04/23 03:12:56;;;;;;;12.03;7.60;;;10.60;99.90;;;;;;5024948;28;20341;-59
2023/04/23 03:15:22;;;;;;;11.63;7.90;;;10.60;99.90;;;;;;5028311;28;20190;-59
2023/04/23 03:17:47;;;;;;;10.20;6.40;;;10.60;99.90;;;;;;5046936;28;20687;-60
2023/04/23 03:20:13;;;;;;;5.97;4.90;;;10.60;99.90;;;;;;5046335;28;20186;-60
2023/04/23 03:22:39;;;;;;;12.97;5.20;;;10.60;99.90;;;;;;5042966;28;20174;-59
2023/04/23 03:25:05;;;;;;;8.50;5.20;;;10.60;99.90;;;;;;5042035;28;20195;-59
2023/04/23 03:27:31;;;;;;;8.90;5.13;;;10.60;99.90;;;;;;5032064;28;20178;-60
2023/04/23 03:29:56;;;;;;;5.00;4.50;;;10.60;99.90;;;;;;5042391;28;20430;-60
2023/04/23 03:32:23;;;;;;;10.87;5.20;;;10.60;99.90;;;;;;5043730;28;20183;-59
2023/04/23 03:34:48;;;;;;;10.07;4.90;;;10.60;99.90;;;;;;5042578;28;20206;-59
2023/04/23 03:37:14;;;;;;;8.07;5.07;;;10.50;99.90;;;;;;5041904;28;20426;-59
2023/04/23 03:39:39;;;;;;;8.67;5.10;;;10.50;99.90;;;;;;5044996;28;20545;-60
2023/04/23 03:42:05;;;;;;;5.13;4.63;;;10.50;99.90;;;;;;5026255;28;20171;-59
2023/04/23 03:44:30;;;;;;;8.30;4.70;;;10.50;99.90;;;;;;5042551;28;20693;-59
2023/04/23 03:46:56;;;;;;;6.43;5.10;;;10.40;99.90;;;;;;5043248;28;20206;-60
2023/04/23 03:49:22;;;;;;;11.50;4.67;;;10.40;99.90;;;;;;5037365;28;20195;-59
2023/04/23 03:51:47;;;;;;;6.67;5.00;;;10.40;99.90;;;;;;5045134;28;20183;-59
2023/04/23 03:54:13;;;;;;;6.70;5.43;;;10.40;99.90;;;;;;5043623;28;20310;-59
2023/04/23 03:56:38;;;;;;;7.50;4.77;;;10.30;99.90;;;;;;5045687;28;20225;-60
2023/04/23 03:59:04;;;;;;;8.53;5.00;;;10.30;99.90;;;;;;5040171;28;20751;-59
2023/04/23 04:01:31;;;;;;;7.60;5.20;;;10.30;99.90;;;;;;5036596;28;20183;-59
2023/04/23 04:03:57;;;;;;;10.03;5.60;;;10.30;99.90;;;;;;5045834;28;20551;-59
2023/04/23 04:06:23;;;;;;;5.77;4.70;;;10.30;99.90;;;;;;5040728;28;20953;-59
2023/04/23 04:08:48;;;;;;;10.47;4.90;;;10.30;99.90;;;;;;5043744;28;20191;-59
2023/04/23 04:11:14;;;;;;;5.50;4.17;;;10.30;99.90;;;;;;5036506;28;20176;-59
2023/04/23 04:13:40;;;;;;;8.93;3.80;;;10.30;99.90;;;;;;5047704;28;20198;-59
2023/04/23 04:16:05;;;;;;;5.97;3.60;;;10.30;99.90;;;;;;5044978;28;20167;-59
2023/04/23 04:18:31;;;;;;;5.70;4.03;;;10.30;99.90;;;;;;5040999;28;20210;-59
2023/04/23 04:20:56;;;;;;;5.20;4.10;;;10.30;99.90;;;;;;5033026;28;20251;-59
2023/04/23 04:23:22;;;;;;;5.43;4.53;;;10.20;99.90;;;;;;5037674;28;20175;-59
2023/04/23 04:25:49;;;;;;;3.70;3.20;;;10.20;99.90;;;;;;5043160;28;20183;-60
2023/04/23 04:28:15;;;;;;;4.70;3.43;;;10.20;99.90;;;;;;5044028;28;20195;-59
2023/04/23 04:30:41;;;;;;;5.33;3.43;;;10.20;99.90;;;;;;5041071;28;20444;-59
2023/04/23 04:33:07;;;;;;;6.50;3.80;;;10.20;99.90;;;;;;5042923;28;20446;-60
2023/04/23 04:35:33;;;;;;;5.93;3.70;;;10.10;99.90;;;;;;5047108;28;20189;-59
2023/04/23 04:37:59;;;;;;;7.40;4.10;;;10.10;99.90;;;;;;5041083;28;20537;-59
2023/04/23 04:40:25;;;;;;;4.60;4.10;;;10.20;99.90;;;;;;5041425;28;20182;-59
2023/04/23 04:42:51;;;;;;;6.27;4.13;;;10.20;99.90;;;;;;5046290;28;20179;-59
2023/04/23 04:45:18;;;;;;;5.20;4.07;;;10.20;99.90;;;;;;5025200;28;20484;-59
2023/04/23 04:47:44;;;;;;;5.60;4.30;;;10.20;99.90;;;;;;5042900;28;20225;-60
2023/04/23 04:50:10;;;;;;;4.40;4.00;;;10.20;99.90;;;;;;5044633;28;20844;-60
2023/04/23 04:52:36;;;;;;;8.00;4.63;;;10.20;99.90;;;;;;5044750;28;20329;-59
2023/04/23 04:55:01;;;;;;;5.80;4.40;;;10.20;99.90;;;;;;5045597;28;20434;-59
2023/04/23 04:57:27;;;;;;;6.60;3.50;;;10.20;99.90;;;;;;5023639;28;20465;-59
2023/04/23 04:59:52;;;;;;;4.40;3.43;;;10.30;99.90;;;;;;5027286;28;20549;-58
2023/04/23 05:02:20;;;;;;;5.17;4.03;;;10.30;99.90;;;;;;5039554;28;20176;-60
2023/04/23 05:04:45;;;;;;;4.23;3.83;;;10.30;99.90;;;;;;5041818;28;20175;-59
2023/04/23 05:07:11;;;;;;;6.23;4.10;;;10.20;99.90;;;;;;5042026;28;20429;-59
2023/04/23 05:09:37;;;;;;;6.23;4.10;;;10.20;99.90;;;;;;5045489;28;20275;-59
2023/04/23 05:12:02;;;;;;;4.30;3.50;;;10.20;99.90;;;;;;5040569;28;20179;-60
2023/04/23 05:14:28;;;;;;;4.40;3.60;;;10.20;99.90;;;;;;5040754;28;20210;-59
2023/04/23 05:16:54;;;;;;;5.63;3.10;;;10.20;99.90;;;;;;5037769;28;20179;-59
2023/04/23 05:19:19;;;;;;;3.00;2.70;;;10.20;99.90;;;;;;5040634;28;20544;-59
2023/04/23 05:21:45;;;;;;;3.63;2.93;;;10.20;99.90;;;;;;5045416;28;20270;-59
2023/04/23 05:24:11;;;;;;;3.50;3.10;;;10.20;99.90;;;;;;5041610;28;20187;-59
2023/04/23 05:26:37;;;;;;;7.23;2.80;;;10.20;99.90;;;;;;5047273;28;20183;-59
2023/04/23 05:29:03;;;;;;;5.30;2.93;;;10.20;99.90;;;;;;5023285;28;20199;-59
2023/04/23 05:31:28;;;;;;;3.37;3.07;;;10.20;99.90;;;;;;5045020;28;20434;-59
2023/04/23 05:33:54;;;;;;;3.50;3.20;;;10.20;99.90;;;;;;5045456;28;21061;-60
2023/04/23 05:36:19;;;;;;;3.17;2.40;;;10.20;99.90;;;;;;5045260;28;20254;-60
2023/04/23 05:38:46;;;;;;;4.13;3.20;;;10.20;99.90;;;;;;5039147;28;20206;-59
2023/04/23 05:41:11;;;;;;;7.47;2.80;;;10.20;99.90;;;;;;5041268;28;20233;-59
2023/04/23 05:43:37;;;;;;;4.30;3.30;;;10.20;99.90;;;;;;5042738;28;20437;-59
2023/04/23 05:46:05;;;;;;;5.03;2.50;;;10.20;99.90;;;;;;5037299;28;20254;-59
2023/04/23 05:48:30;;;;;;;11.37;3.10;;;10.20;99.90;;;;;;5035537;28;20203;-59
2023/04/23 05:50:56;;;;;;;3.10;2.80;;;10.20;99.90;;;;;;5038472;28;20448;-59
2023/04/23 05:53:22;;;;;;;3.43;2.97;;;10.20;99.90;;;;;;5046067;28;20566;-59
2023/04/23 05:55:48;;;;;;;3.57;2.83;;;10.30;99.90;;;;;;5043317;28;20440;-60
2023/04/23 05:58:14;;;;;;;3.80;2.97;;;10.30;99.90;;;;;;5040070;28;20203;-60
2023/04/23 06:00:40;;;;;;;3.00;2.70;;;10.30;99.90;;;;;;5032920;28;20179;-59
2023/04/23 06:03:06;;;;;;;5.33;3.30;;;10.30;99.90;;;;;;5038530;28;20437;-60
2023/04/23 06:05:31;;;;;;;3.63;3.00;;;10.40;99.90;;;;;;5039486;28;20183;-59
2023/04/23 06:07:57;;;;;;;3.13;2.87;;;10.40;99.90;;;;;;5045348;28;20460;-59
2023/04/23 06:10:23;;;;;;;7.23;2.73;;;10.50;99.90;;;;;;5046549;28;20171;-59
2023/04/23 06:12:48;;;;;;;2.80;2.60;;;10.50;99.90;;;;;;5042293;28;20179;-59
2023/04/23 06:15:14;;;;;;;4.00;2.20;;;10.50;99.90;;;;;;5029416;28;20340;-59
2023/04/23 06:17:40;;;;;;;4.10;2.80;;;10.50;99.90;;;;;;5047282;28;20195;-60
2023/04/23 06:20:07;;;;;;;2.20;2.03;;;10.50;99.90;;;;;;5025708;28;20274;-59
2023/04/23 06:22:33;;;;;;;2.53;2.30;;;10.50;99.90;;;;;;5037836;28;20645;-59
2023/04/23 06:24:59;;;;;;;4.00;2.53;;;10.50;99.90;;;;;;5039713;28;20430;-59
2023/04/23 06:27:25;;;;;;;3.50;2.43;;;10.50;99.90;;;;;;5026323;28;20175;-59
2023/04/23 06:29:51;;;;;;;2.87;2.50;;;10.50;99.90;;;;;;5040486;28;20194;-59
2023/04/23 06:32:17;;;;;;;3.23;2.93;;;10.50;99.90;;;;;;5037222;28;20441;-59
2023/04/23 06:34:43;;;;;;;2.60;2.40;;;10.60;99.90;;;;;;5045413;28;20203;-59
2023/04/23 06:37:09;;;;;;;3.33;2.00;;;10.60;99.90;;;;;;5049893;28;20421;-59
2023/04/23 06:39:34;;;;;;;2.53;2.23;;;10.60;99.90;;;;;;5043492;28;20206;-59
2023/04/23 06:42:00;;;;;;;9.70;2.73;;;10.70;99.90;;;;;;5044235;28;20172;-59
2023/04/23 06:44:26;;;;;;;2.30;2.10;;;10.70;99.90;;;;;;5049224;28;20183;-59
2023/04/23 06:46:51;;;;;;;2.37;2.17;;;10.70;99.90;;;;;;5032359;28;21066;-59
2023/04/23 06:49:17;;;;;;;4.40;2.60;;;10.80;99.90;;;;;;5042269;28;20199;-59
2023/04/23 06:51:43;;;;;;;2.40;2.20;;;10.80;99.90;;;;;;5045860;28;20191;-60
2023/04/23 06:54:08;;;;;;;2.03;1.80;;;10.80;99.90;;;;;;5043669;28;20465;-59
2023/04/23 06:56:34;;;;;;;2.57;2.37;;;10.90;99.90;;;;;;5038451;28;20172;-59
2023/04/23 06:59:00;;;;;;;2.83;2.40;;;10.90;99.90;;;;;;5048458;28;20567;-60
2023/04/23 07:01:25;;;;;;;2.63;2.03;;;10.90;99.90;;;;;;5044687;28;20221;-60
2023/04/23 07:03:53;;;;;;;3.80;2.70;;;11.00;99.90;;;;;;5041241;28;20184;-59
2023/04/23 07:06:18;;;;;;;2.20;2.00;;;11.10;99.90;;;;;;5048253;28;20254;-60
2023/04/23 07:08:44;;;;;;;2.87;1.83;;;11.20;99.90;;;;;;5020854;28;20470;-60
2023/04/23 07:11:11;;;;;;;1.23;1.20;;;11.20;99.90;;;;;;5040465;28;20588;-60
2023/04/23 07:13:37;;;;;;;1.60;1.50;;;11.20;99.90;;;;;;5041127;28;20588;-59
2023/04/23 07:16:03;;;;;;;1.73;1.63;;;11.20;99.90;;;;;;5035987;28;20556;-60
2023/04/23 07:18:28;;;;;;;2.20;2.00;;;11.20;99.90;;;;;;5040374;28;20452;-60
2023/04/23 07:20:54;;;;;;;2.17;1.97;;;11.20;99.90;;;;;;5038104;28;20604;-59
2023/04/23 07:23:20;;;;;;;1.80;1.70;;;11.30;99.90;;;;;;5041448;28;20175;-59
2023/04/23 07:25:45;;;;;;;1.83;1.63;;;11.30;99.90;;;;;;5040441;28;20492;-58
2023/04/23 07:28:11;;;;;;;3.70;2.07;;;11.30;99.90;;;;;;5033976;28;20226;-58
2023/04/23 07:30:37;;;;;;;1.93;1.70;;;11.30;99.90;;;;;;5038388;28;20262;-60
2023/04/23 07:33:02;;;;;;;2.00;1.70;;;11.30;99.90;;;;;;5042332;28;20199;-59
2023/04/23 07:35:28;;;;;;;1.70;1.60;;;11.30;99.90;;;;;;5044111;28;20680;-60
2023/04/23 07:37:56;;;;;;;2.20;2.00;;;11.20;99.90;;;;;;5027851;28;20198;-59
2023/04/23 07:40:22;;;;;;;4.37;1.70;;;11.20;99.90;;;;;;5034611;28;20748;-60
2023/04/23 07:42:48;;;;;;;2.07;1.87;;;11.20;99.90;;;;;;5033036;28;20524;-61
2023/04/23 07:45:14;;;;;;;1.57;1.47;;;11.20;99.90;;;;;;5039296;28;20503;-60
2023/04/23 07:47:40;;;;;;;1.50;1.40;;;11.20;99.90;;;;;;5034046;28;20485;-59
2023/04/23 07:50:06;;;;;;;1.50;1.40;;;11.30;99.90;;;;;;5030341;28;20242;-60
2023/04/23 07:52:32;;;;;;;1.90;1.73;;;11.30;99.90;;;;;;5031567;28;20175;-61
2023/04/23 07:54:57;;;;;;;1.40;1.30;;;11.30;99.90;;;;;;5030311;28;20469;-60
2023/04/23 07:57:23;;;;;;;2.20;1.43;;;11.30;99.90;;;;;;5037181;28;20176;-59
2023/04/23 07:59:48;;;;;;;2.20;1.70;;;11.30;99.90;;;;;;5039204;28;20174;-60
2023/04/23 08:02:14;;;;;;;2.70;1.70;;;11.40;99.90;;;;;;5038738;28;20171;-62
2023/04/23 08:04:40;;;;;;;2.23;1.73;;;11.40;99.90;;;;;;5034602;28;20190;-61
2023/04/23 08:07:05;;;;;;;1.70;1.60;;;11.40;99.90;;;;;;5034480;28;20218;-60
2023/04/23 08:09:31;;;;;;;2.33;1.80;;;11.40;99.90;;;;;;5041983;28;20210;-60
2023/04/23 08:11:57;;;;;;;2.43;2.17;;;11.40;99.90;;;;;;5023286;28;20172;-60
2023/04/23 08:14:22;;;;;;;1.80;1.70;;;11.50;99.90;;;;;;5043459;28;20194;-60
2023/04/23 08:16:48;;;;;;;1.73;1.50;;;11.50;99.90;;;;;;5035163;28;20175;-60
2023/04/23 08:19:14;;;;;;;1.60;1.27;;;11.50;99.90;;;;;;5034975;28;20286;-61
2023/04/23 08:21:39;;;;;;;1.67;1.57;;;11.70;99.90;;;;;;5039528;28;20167;-61
2023/04/23 08:24:08;;;;;;;2.40;1.80;;;11.80;99.90;;;;;;5038294;28;20179;-59
2023/04/23 08:26:33;;;;;;;2.80;2.07;;;11.90;99.90;;;;;;5034225;28;20207;-61
2023/04/23 08:29:03;;;;;;;1.63;1.53;;;12.10;99.90;;;;;;5038336;28;20828;-61
2023/04/23 08:31:29;;;;;;;5.30;1.43;;;12.30;99.90;;;;;;5036775;28;20183;-61
2023/04/23 08:33:55;;;;;;;2.03;1.63;;;12.50;99.90;;;;;;5039233;28;20537;-59
2023/04/23 08:36:21;;;;;;;2.17;1.60;;;12.70;99.90;;;;;;5037614;28;20209;-60
2023/04/23 08:38:46;;;;;;;2.73;1.70;;;12.80;99.90;;;;;;5035654;28;20916;-61
2023/04/23 08:41:14;;;;;;;3.10;1.60;;;12.80;99.90;;;;;;5031035;28;20187;-60
2023/04/23 08:44:00;;;;;;;2.27;1.97;;;12.80;99.90;;;;;;5035836;28;20229;-60
2023/04/23 08:46:30;;;;;;;2.70;1.87;;;12.80;99.90;;;;;;5031087;28;20437;-60
2023/04/23 08:48:57;;;;;;;2.33;1.93;;;12.80;99.90;;;;;;5037217;28;20537;-60
2023/04/23 08:51:25;;;;;;;2.33;2.13;;;12.80;99.90;;;;;;5031179;28;20437;-60
2023/04/23 08:53:57;;;;;;;1.80;1.70;;;12.80;99.90;;;;;;5036843;28;20461;-59
2023/04/23 08:56:23;;;;;;;1.53;1.43;;;12.80;99.90;;;;;;5021984;28;20468;-60
2023/04/23 08:58:49;;;;;;;2.50;1.50;;;12.90;99.90;;;;;;5030647;28;20493;-60
2023/04/23 09:01:16;;;;;;;1.83;1.73;;;13.00;99.90;;;;;;5037856;28;20457;-61
2023/04/23 09:03:42;;;;;;;1.70;1.60;;;13.10;99.90;;;;;;5038277;28;20190;-59
2023/04/23 09:06:08;;;;;;;3.47;1.57;;;13.20;99.90;;;;;;5038920;28;20440;-60
2023/04/23 09:08:34;;;;;;;2.40;1.70;;;13.20;99.90;;;;;;5029208;28;20493;-60
2023/04/23 09:11:01;;;;;;;2.03;1.83;;;13.20;99.90;;;;;;5037859;28;20930;-59
2023/04/23 09:13:28;;;;;;;1.67;1.57;;;13.40;99.90;;;;;;5038005;28;20195;-59
2023/04/23 09:15:54;;;;;;;1.83;1.40;;;13.60;99.90;;;;;;5036958;28;20430;-59
2023/04/23 09:18:20;;;;;;;3.40;1.70;;;13.60;99.90;;;;;;5038850;28;20953;-60
2023/04/23 09:20:45;;;;;;;2.30;1.37;;;13.50;99.90;;;;;;5036211;28;20186;-60
2023/04/23 09:23:13;;;;;;;1.67;1.50;;;13.60;99.90;;;;;;5037342;28;20191;-61
2023/04/23 09:25:39;;;;;;;3.90;1.50;;;13.60;99.90;;;;;;5037117;28;20265;-59
2023/04/23 09:28:10;;;;;;;1.90;1.67;;;13.50;99.90;;;;;;5035787;28;20519;-59
2023/04/23 09:30:43;;;;;;;1.77;1.50;;;13.60;99.90;;;;;;5031966;28;20236;-55
2023/04/23 09:33:11;;;;;;;1.40;1.30;;;13.60;99.90;;;;;;5040451;28;20460;-60
2023/04/23 09:35:37;;;;;;;2.00;1.40;;;13.70;99.90;;;;;;5014656;28;20461;-60
2023/04/23 09:38:06;;;;;;;4.90;2.20;;;13.90;99.90;;;;;;5025556;28;20831;-59
2023/04/23 09:40:32;;;;;;;4.87;3.10;;;14.00;99.90;;;;;;5033614;28;20447;-59
2023/04/23 09:42:58;;;;;;;2.43;1.50;;;14.10;99.90;;;;;;5032558;28;20472;-59
2023/04/23 09:45:24;;;;;;;4.80;1.63;;;14.20;99.90;;;;;;5034877;28;20886;-61
2023/04/23 09:47:55;;;;;;;1.50;1.40;;;14.30;99.90;;;;;;5038735;28;20195;-60
2023/04/23 09:50:39;;;;;;;4.60;1.80;;;14.60;99.90;;;;;;5042739;28;20481;-61
2023/04/23 09:53:08;;;;;;;1.70;1.47;;;14.80;99.90;;;;;;5037982;28;20468;-61
2023/04/23 09:55:37;;;;;;;1.93;1.37;;;14.80;92.20;;;;;;5040801;28;20444;-60
2023/04/23 09:58:14;;;;;;;2.60;1.43;;;14.80;94.80;;;;;;5035327;28;20468;-60
2023/04/23 10:00:40;;;;;;;2.10;1.60;;;14.90;96.60;;;;;;5034922;28;20440;-61
2023/04/23 10:03:08;;;;;;;3.93;1.77;;;15.00;96.70;;;;;;5037403;28;21501;-60
2023/04/23 10:05:39;;;;;;;7.90;1.77;;;15.20;97.40;;;;;;5040951;28;20563;-60
2023/04/23 10:08:06;;;;;;;1.80;1.50;;;15.30;94.60;;;;;;5038514;28;20821;-60
2023/04/23 10:10:33;;;;;;;3.33;1.93;;;15.40;91.50;;;;;;5033250;28;20430;-59
2023/04/23 10:13:00;;;;;;;1.70;1.37;;;15.50;91.30;;;;;;5031141;28;20465;-59
2023/04/23 10:15:26;;;;;;;2.43;1.77;;;15.60;90.30;;;;;;5030707;28;20984;-58
2023/04/23 10:17:53;;;;;;;5.67;1.60;;;15.60;87.50;;;;;;5033177;28;20977;-59
2023/04/23 10:20:23;;;;;;;1.67;1.57;;;15.50;89.20;;;;;;5034742;28;20432;-59
2023/04/23 10:22:49;;;;;;;4.30;1.67;;;15.50;88.60;;;;;;5033578;28;20459;-59
2023/04/23 10:25:16;;;;;;;1.70;1.60;;;15.50;90.60;;;;;;5032356;28;20949;-59
2023/04/23 10:27:46;;;;;;;1.67;1.50;;;15.50;89.40;;;;;;5036439;28;20899;-60
2023/04/23 10:30:13;;;;;;;3.53;1.90;;;15.70;90.10;;;;;;5030653;28;20428;-59
2023/04/23 10:32:40;;;;;;;2.10;1.70;;;15.70;82.20;;;;;;5029462;28;20434;-60
2023/04/23 10:35:07;;;;;;;4.73;1.63;;;15.70;80.70;;;;;;5025448;28;20466;-59
2023/04/23 10:37:34;;;;;;;1.77;1.67;;;15.80;89.90;;;;;;5034030;28;20453;-58
2023/04/23 10:40:10;;;;;;;3.50;1.70;;;16.00;89.00;;;;;;5033696;28;20430;-58
2023/04/23 10:42:37;;;;;;;2.87;1.90;;;16.10;82.30;;;;;;5034930;28;20436;-60
2023/04/23 10:45:11;;;;;;;3.40;1.80;;;16.10;80.70;;;;;;5021156;28;22124;-60
2023/04/23 10:47:37;;;;;;;1.47;1.37;;;16.20;79.40;;;;;;5035180;28;20528;-59
2023/04/23 10:50:23;;;;;;;3.43;1.83;;;16.20;79.70;;;;;;5038199;28;20509;-61
2023/04/23 10:52:52;;;;;;;7.73;2.50;;;16.20;72.20;;;;;;5032538;28;20183;-60
2023/04/23 10:55:21;;;;;;;3.47;1.97;;;16.20;72.90;;;;;;5037341;28;20813;-60
2023/04/23 10:57:58;;;;;;;3.57;2.07;;;16.20;70.90;;;;;;5043122;28;21124;-59
2023/04/23 11:00:25;;;;;;;5.30;2.30;;;16.10;73.20;;;;;;5037052;28;20463;-60
2023/04/23 11:02:52;;;;;;;3.60;2.37;;;15.90;67.10;;;;;;5042782;28;20437;-60
2023/04/23 11:05:17;;;;;;;4.17;2.30;;;15.80;71.70;;;;;;5041906;28;21100;-60
2023/04/23 11:08:05;;;;;;;3.60;2.13;;;15.60;70.80;;;;;;5037578;28;20532;-61
2023/04/23 11:10:32;;;;;;;4.57;2.00;;;15.50;73.50;;;;;;5035305;28;20179;-60
2023/04/23 11:13:17;;;;;;;4.40;2.23;;;15.40;77.70;;;;;;5037383;28;20798;-60
2023/04/23 11:15:43;;;;;;;4.80;2.10;;;15.40;79.10;;;;;;5038396;28;20437;-60
2023/04/23 11:18:10;;;;;;;4.03;2.07;;;15.40;80.30;;;;;;5041138;28;20477;-61
2023/04/23 11:20:36;;;;;;;7.10;3.10;;;15.50;77.80;;;;;;5083641;23;20214;-54
2023/04/23 11:23:06;;;;;;;9.53;3.20;;;15.70;81.40;;;;;;5079018;28;20944;-57
2023/04/23 11:25:32;;;;;;;3.87;2.57;;;15.80;83.00;;;;;;5080241;28;20168;-56
2023/04/23 11:27:57;;;;;;;4.90;2.47;;;16.00;83.60;;;;;;5075673;28;20443;-55
2023/04/23 11:30:24;;;;;;;8.50;3.13;;;16.20;83.60;;;;;;5081681;28;21141;-56
2023/04/23 11:32:52;;;;;;;4.73;2.90;;;16.40;77.90;;;;;;5076771;28;20710;-56
2023/04/23 11:35:19;;;;;;;7.90;2.30;;;16.50;75.00;;;;;;5079486;28;20439;-55
2023/04/23 11:37:47;;;;;;;3.93;2.73;;;16.50;70.50;;;;;;5082335;28;20420;-56
2023/04/23 11:40:17;;;;;;;5.27;3.23;;;16.50;71.20;;;;;;5083519;28;20451;-57
2023/04/23 11:42:48;;;;;;;3.77;2.30;;;16.50;75.70;;;;;;5079347;28;20430;-56
2023/04/23 11:45:24;;;;;;;1.83;1.73;;;16.60;74.40;;;;;;5083553;28;20430;-57
2023/04/23 11:47:54;;;;;;;2.80;2.20;;;16.90;75.30;;;;;;5075356;28;20450;-55
2023/04/23 11:50:22;;;;;;;3.17;2.17;;;17.20;61.80;;;;;;5080036;28;20528;-54
2023/04/23 11:52:48;;;;;;;2.90;2.37;;;17.50;58.10;;;;;;5076106;28;20416;-56
2023/04/23 11:55:15;;;;;;;4.57;2.20;;;17.70;57.50;;;;;;5081573;28;20511;-54
2023/04/23 11:57:45;;;;;;;4.57;2.60;;;17.80;57.00;;;;;;5080197;28;20246;-55
2023/04/23 12:00:15;;;;;;;4.90;2.37;;;17.90;56.70;;;;;;5097006;28;20504;-57
2023/04/23 12:03:01;;;;;;;5.30;2.50;;;18.20;55.80;;;;;;5079366;28;20435;-55
2023/04/23 12:05:36;;;;;;;3.27;2.20;;;18.40;56.20;;;;;;5080180;28;20427;-54
2023/04/23 12:08:16;;;;;;;3.63;2.27;;;18.70;55.00;;;;;;5078409;28;20454;-55
2023/04/23 12:10:44;;;;;;;5.53;2.30;;;18.60;54.00;;;;;;5073720;28;20471;-54
2023/04/23 12:13:17;;;;;;;3.60;2.20;;;18.40;54.30;;;;;;5078488;28;20460;-57
2023/04/23 12:15:45;;;;;;;4.80;2.17;;;18.20;55.10;;;;;;5075833;28;20939;-56
2023/04/23 12:18:11;;;;;;;9.80;2.77;;;18.00;55.60;;;;;;5077687;28;22579;-54
2023/04/23 12:20:38;;;;;;;4.10;2.60;;;17.80;56.60;;;;;;5080224;28;20554;-54
2023/04/23 12:23:08;;;;;;;6.10;2.70;;;17.60;57.10;;;;;;5073121;28;20230;-55
2023/04/23 12:25:35;;;;;;;2.63;2.17;;;17.70;59.40;;;;;;5075416;28;20433;-56
2023/04/23 12:28:05;;;;;;;4.87;2.27;;;17.90;58.60;;;;;;5075145;28;20447;-55
2023/04/23 12:30:33;;;;;;;3.87;2.23;;;18.10;57.60;;;;;;5081753;28;20474;-55
2023/04/23 12:33:03;;;;;;;2.40;1.97;;;18.30;57.40;;;;;;5072841;28;20440;-56
2023/04/23 12:35:38;;;;;;;2.43;2.20;;;18.50;58.00;;;;;;5080797;28;21247;-57
2023/04/23 12:38:04;;;;;;;2.23;2.03;;;18.80;55.10;;;;;;5080624;28;20518;-56
2023/04/23 12:40:30;;;;;;;5.60;3.07;;;18.90;53.40;;;;;;5072380;28;20569;-55
2023/04/23 12:42:56;;;;;;;3.63;2.00;;;18.90;55.00;;;;;;5074230;28;20454;-55